NATURA VA

 INFORMACIÓN METAR y TAF
METAR FOR LEJR
ADDS - METARS form results

(0045 UTC 20 May 2019)
Data provider http://aviationweather.gov/metar/data/
 
METAR text: LEJR 200030Z AUTO 17005KT 140V210 9999 NCD 16/15 Q1013
Conditions at: LEJR (JEREZ (CIV/MIL) , ES) observed 0030 UTC 20 May 2019
Temperature: 16.0°C (61°F)
Dewpoint: 15.0°C (59°F) [RH = 94%]
Pressure (altimeter): 29.91 inches Hg (1013.0 mb)
Winds: from the S (170 degrees) at 6 MPH (5 knots; 2.6 m/s)
Visibility: 6 or more miles (10+ km)
Ceiling: at least 12,000 feet AGL
Clouds: sky clear below 12,000 feet AGL
Weather: no significant weather observed at this time

METAR text: LEJR 200000Z AUTO 17004KT 130V210 9999 NCD 16/15 Q1014
Conditions at: LEJR (JEREZ (CIV/MIL) , ES) observed 0000 UTC 20 May 2019
Temperature: 16.0°C (61°F)
Dewpoint: 15.0°C (59°F) [RH = 94%]
Pressure (altimeter): 29.94 inches Hg (1014.0 mb)
Winds: from the S (170 degrees) at 5 MPH (4 knots; 2.1 m/s)
Visibility: 6 or more miles (10+ km)
Ceiling: at least 12,000 feet AGL
Clouds: sky clear below 12,000 feet AGL
Weather: no significant weather observed at this time

Forecast for: LEJR (JEREZ (CIV/MIL) , ES)
Text: TAF LEJR 192300Z 2000/2024 VRB02KT 9999 FEW030 TX27/2015Z TN12/2006Z
Forecast period: 0000 to 1000 UTC 20 May 2019
Forecast type: FROM: standard forecast or significant change
Winds: variable direction winds at 2 MPH (2 knots; 1.0 m/s)
Visibility: 6 or more miles 10+ km)
Ceiling: at least 12,000 feet AGL
Clouds: few clouds at 3000 feet AGL
Weather: no significant weather forecast for this period
Text: BECMG 2010/2012 27011KT
Forecast period: 1000 to 2000 UTC 20 May 2019
Forecast type: BECOMING: Conditions expected to become as follows by 1200 UTC 20 May 2019
Winds: from the W (270 degrees) at 13 MPH (11 knots; 5.7 m/s)
Visibility: 6 or more miles 10+ km)
Ceiling: at least 12,000 feet AGL
Clouds: few clouds at 3000 feet AGL
Weather: no significant weather forecast for this period
Text: BECMG 2020/2022 18004KT
Forecast period: 2000 UTC 20 May 2019 to 0000 UTC 21 May 2019
Forecast type: BECOMING: Conditions expected to become as follows by 2200 UTC 20 May 2019
Winds: from the S (180 degrees) at 5 MPH (4 knots; 2.1 m/s)
Visibility: 6 or more miles 10+ km)
Ceiling: at least 12,000 feet AGL
Clouds: few clouds at 3000 feet AGL
Weather: no significant weather forecast for this period

 MAPA DE AEROPUERTO

 INFORMACIÓN DE PISTA
Pista 02 Longitud 7546 ft Ancho 148 ft
Elevación 68 ft Umbral desplazado 0 ft Rumbo de pista 21
Pista 20 Longitud 7546 ft Ancho 148 ft
Elevación 93 ft Umbral desplazado 0 ft Rumbo de pista 201

 FRECUANCIAS DEL AEROPUERTO
Tipo APP Nombre APP Frecuencia 128.5 MHZ
Tipo GND Nombre GND Frecuencia 121.6 MHZ
Tipo TWR Nombre TWR Frecuencia 118.55 MHZ

 RADIO AYUDAS DEL AEROPUERTO
Tipo NDB Nombre Jerez Frecuencia 433 KHZ
Tipo VOR-DME Nombre Jerez Frecuencia 113000 KHZ



Powered by Virtual Airlines Manager [v2.6.2]